Terminal Aerodrome Forecast
Issued by NWS Shreveport, LA

Home | Current Version | Previous Version | Text Only | Print | Product List | Glossary On
Versions: 1 2 3 4 5 6 7 8 9 10 11 12 13 14 15 16 17 18 19
270
FTUS44 KSHV 051959 AAA
TAFELD
TAF AMD
KELD 051959Z 0520/0618 03005KT 5SM -RA BR OVC004
     FM060900 27005KT 4SM -DZ BR OVC003
     FM061700 31006KT P6SM OVC009=

USA.gov is the U.S. government's official web portal to all federal, state and local government web resources and services.